createdAt,value
2019-03-21T00:01:39.453Z,102664.48
2019-03-21T00:04:15.883Z,102667.95
2019-03-21T00:06:45.520Z,102667.56
2019-03-21T00:09:18.697Z,102667.56
2019-03-21T00:11:59.909Z,102667.56
2019-03-21T00:14:55.909Z,102665.39
2019-03-21T00:17:42.120Z,102668.39
2019-03-21T00:20:15.888Z,102661.92
2019-03-21T00:22:45.584Z,102669.70
2019-03-21T00:25:20.061Z,102671.89
2019-03-21T00:27:49.590Z,102669.72
2019-03-21T00:30:23.017Z,102664.09
2019-03-21T00:32:54.286Z,102679.30
2019-03-21T00:35:24.185Z,102679.31
2019-03-21T00:37:54.968Z,102669.77
2019-03-21T00:40:29.089Z,102674.56
2019-03-21T00:43:01.984Z,102672.42
2019-03-21T00:45:31.614Z,102678.09
2019-03-21T00:48:02.769Z,102672.05
2019-03-21T00:50:32.657Z,102672.93
2019-03-21T00:53:02.416Z,102672.95
2019-03-21T00:55:42.779Z,102675.13
2019-03-21T00:58:12.619Z,102667.33
2019-03-21T01:00:59.110Z,102668.23
2019-03-21T01:03:28.738Z,102670.39
2019-03-21T01:05:58.554Z,102666.08
2019-03-21T01:08:28.432Z,102654.37
2019-03-21T01:10:57.977Z,102657.03
2019-03-21T01:13:35.039Z,102658.33
2019-03-21T01:16:05.100Z,102658.34
2019-03-21T01:18:38.872Z,102648.82
2019-03-21T01:21:08.680Z,102652.73
2019-03-21T01:23:38.551Z,102638.86
2019-03-21T01:26:12.563Z,102642.79
2019-03-21T01:28:42.161Z,102631.11
2019-03-21T01:31:12.007Z,102641.48
2019-03-21T01:33:41.709Z,102640.64
2019-03-21T01:36:11.558Z,102638.47
2019-03-21T01:38:41.089Z,102644.50
2019-03-21T01:41:15.093Z,102644.10
2019-03-21T01:43:44.663Z,102644.12
2019-03-21T01:46:26.364Z,102635.88
2019-03-21T01:48:55.968Z,102636.30
2019-03-21T01:51:25.803Z,102638.04
2019-03-21T01:53:56.680Z,102641.94
2019-03-21T01:56:29.030Z,102638.05
2019-03-21T01:58:58.904Z,102639.34
2019-03-21T02:01:28.603Z,102633.28
2019-03-21T02:03:58.413Z,102629.86
2019-03-21T02:06:27.992Z,102629.43
2019-03-21T02:08:57.643Z,102626.39
2019-03-21T02:11:27.169Z,102635.06
2019-03-21T02:13:57.017Z,102632.03
2019-03-21T02:16:26.755Z,102624.68
2019-03-21T02:18:56.300Z,102620.31
2019-03-21T02:21:25.868Z,102632.45
2019-03-21T02:23:56.218Z,102631.17
2019-03-21T02:26:25.776Z,102620.34
2019-03-21T02:28:56.122Z,102619.03
2019-03-21T02:31:25.819Z,102624.22
2019-03-21T02:33:56.090Z,102619.05
2019-03-21T02:36:26.002Z,102622.95
2019-03-21T02:38:56.404Z,102622.09
2019-03-21T02:41:26.026Z,102625.11
2019-03-21T02:43:56.337Z,102626.41
2019-03-21T02:46:25.933Z,102620.80
2019-03-21T02:48:56.267Z,102627.30
2019-03-21T02:51:26.097Z,102625.98
2019-03-21T02:53:56.439Z,102626.44
2019-03-21T02:56:27.231Z,102625.12
2019-03-21T02:58:57.424Z,102617.34
2019-03-21T03:01:26.942Z,102618.64
2019-03-21T03:03:56.649Z,102625.98
2019-03-21T03:06:26.232Z,102626.42
2019-03-21T03:08:56.485Z,102629.45
2019-03-21T03:11:26.389Z,102624.71
2019-03-21T03:13:56.568Z,102627.31
2019-03-21T03:16:26.105Z,102631.21
2019-03-21T03:18:56.377Z,102632.49
2019-03-21T03:21:26.162Z,102633.80
2019-03-21T03:23:56.553Z,102629.47
2019-03-21T03:26:26.088Z,102633.80
2019-03-21T03:28:56.429Z,102631.62
2019-03-21T03:31:26.138Z,102629.91
2019-03-21T03:33:56.413Z,102627.73
2019-03-21T03:36:26.267Z,102628.61
2019-03-21T03:38:56.729Z,102634.66
2019-03-21T03:41:26.255Z,102636.39
2019-03-21T03:43:56.589Z,102632.50
2019-03-21T03:46:26.109Z,102634.65
2019-03-21T03:48:56.487Z,102639.44
2019-03-21T03:51:26.269Z,102626.42
2019-03-21T03:53:56.592Z,102638.14
2019-03-21T03:56:26.187Z,102643.32
2019-03-21T03:59:06.657Z,102641.15
2019-03-21T04:01:36.190Z,102651.13
2019-03-21T04:04:06.346Z,102655.88
2019-03-21T04:06:35.906Z,102661.08
2019-03-21T04:09:08.554Z,102653.72
2019-03-21T04:11:38.335Z,102655.00
2019-03-21T04:14:08.462Z,102654.16
2019-03-21T04:16:38.233Z,102652.40
2019-03-21T04:19:08.119Z,102653.70
2019-03-21T04:21:37.666Z,102656.76
2019-03-21T04:24:07.305Z,102651.97
2019-03-21T04:26:37.538Z,102648.07
2019-03-21T04:29:07.391Z,102650.67
2019-03-21T04:31:37.209Z,102648.97
2019-03-21T04:34:10.492Z,102649.81
2019-03-21T04:36:40.029Z,102654.13
2019-03-21T04:39:10.919Z,102656.30
2019-03-21T04:41:43.954Z,102651.09
2019-03-21T04:44:13.818Z,102655.87
2019-03-21T04:46:43.358Z,102660.19
2019-03-21T04:49:13.212Z,102655.43
2019-03-21T04:51:42.757Z,102648.07
2019-03-21T04:54:12.575Z,102651.10
2019-03-21T04:56:42.393Z,102648.92
2019-03-21T04:59:11.947Z,102650.23
2019-03-21T05:01:41.495Z,102645.02
2019-03-21T05:04:11.059Z,102652.40
2019-03-21T05:06:40.606Z,102645.03
2019-03-21T05:09:13.858Z,102647.63
2019-03-21T05:11:43.416Z,102648.08
2019-03-21T05:14:12.942Z,102649.80
2019-03-21T05:16:42.561Z,102650.66
2019-03-21T05:19:12.706Z,102658.89
2019-03-21T05:21:42.545Z,102658.03
2019-03-21T05:24:12.128Z,102655.81
2019-03-21T05:26:41.655Z,102659.72
2019-03-21T05:29:11.557Z,102662.77
2019-03-21T05:31:41.131Z,102660.62
2019-03-21T05:34:10.859Z,102664.06
2019-03-21T05:36:40.682Z,102661.89
2019-03-21T05:39:12.426Z,102670.55
2019-03-21T05:41:42.045Z,102668.41
2019-03-21T05:44:22.533Z,102667.53
2019-03-21T05:46:52.068Z,102668.41
2019-03-21T05:49:21.860Z,102666.67
2019-03-21T05:51:51.682Z,102677.50
2019-03-21T05:54:21.267Z,102671.88
2019-03-21T05:56:50.843Z,102668.41
2019-03-21T05:59:20.687Z,102675.34
2019-03-21T06:01:50.234Z,102675.31
2019-03-21T06:04:19.871Z,102674.91
2019-03-21T06:07:15.551Z,102676.19
2019-03-21T06:09:45.103Z,102683.12
2019-03-21T06:12:14.939Z,102685.72
2019-03-21T06:14:52.017Z,102687.02
2019-03-21T06:17:21.720Z,102683.14
2019-03-21T06:20:08.150Z,102687.05
2019-03-21T06:22:54.287Z,102690.50
2019-03-21T06:25:56.345Z,102687.48
2019-03-21T06:28:25.973Z,102688.38
2019-03-21T06:30:57.045Z,102694.44
2019-03-21T06:33:26.893Z,102699.61
2019-03-21T06:35:57.177Z,102696.62
2019-03-21T06:38:26.744Z,102694.44
2019-03-21T06:40:57.007Z,102694.02
2019-03-21T06:43:26.658Z,102693.15
2019-03-21T06:45:57.026Z,102693.59
2019-03-21T06:48:26.812Z,102697.47
2019-03-21T06:50:57.211Z,102691.41
2019-03-21T06:53:26.767Z,102696.18
2019-03-21T06:55:57.065Z,102703.12
2019-03-21T06:58:26.661Z,102702.25
2019-03-21T07:00:56.973Z,102703.10
2019-03-21T07:03:27.703Z,102704.84
2019-03-21T07:05:57.271Z,102699.19
2019-03-21T07:08:26.843Z,102697.89
2019-03-21T07:10:58.337Z,102699.17
2019-03-21T07:13:28.112Z,102689.61
2019-03-21T07:15:58.229Z,102695.25
2019-03-21T07:18:28.002Z,102696.95
2019-03-21T07:20:58.119Z,102697.39
2019-03-21T07:23:27.914Z,102702.59
2019-03-21T07:25:57.758Z,102699.05
2019-03-21T07:28:27.281Z,102696.86
2019-03-21T07:30:57.507Z,102690.75
2019-03-21T07:33:27.042Z,102685.95
2019-03-21T07:35:57.440Z,102690.63
2019-03-21T07:38:26.990Z,102688.41
2019-03-21T07:40:57.336Z,102685.30
2019-03-21T07:43:26.897Z,102691.27
2019-03-21T07:45:57.242Z,102695.08
2019-03-21T07:48:27.142Z,102689.35
2019-03-21T07:50:57.715Z,102688.80
2019-03-21T07:53:27.259Z,102683.89
2019-03-21T07:55:57.291Z,102680.23
2019-03-21T07:58:26.914Z,102670.05
2019-03-21T08:00:57.370Z,102677.63
2019-03-21T08:03:27.143Z,102674.74
2019-03-21T08:05:57.513Z,102680.59
2019-03-21T08:08:27.062Z,102679.41
2019-03-21T08:10:57.411Z,102680.34
2019-03-21T08:13:27.096Z,102678.28
2019-03-21T08:15:57.433Z,102674.05
2019-03-21T08:18:27.203Z,102674.60
2019-03-21T08:21:00.027Z,102673.83
2019-03-21T08:23:29.139Z,102670.01
2019-03-21T08:25:59.289Z,102674.66
2019-03-21T08:28:29.118Z,102678.03
2019-03-21T08:31:09.450Z,102671.87
2019-03-21T08:33:39.303Z,102678.75
2019-03-21T08:36:08.857Z,102672.31
2019-03-21T08:38:38.425Z,102674.86
2019-03-21T08:41:08.283Z,102680.42
2019-03-21T08:43:38.128Z,102675.03
2019-03-21T08:46:07.756Z,102676.20
2019-03-21T08:48:37.641Z,102681.34
2019-03-21T08:51:08.811Z,102670.24
2019-03-21T08:53:38.505Z,102677.06
2019-03-21T08:56:08.249Z,102681.67
2019-03-21T08:58:37.800Z,102675.88
2019-03-21T09:01:07.742Z,102670.70
2019-03-21T09:03:37.437Z,102681.56
2019-03-21T09:06:07.002Z,102676.50
2019-03-21T09:08:36.570Z,102669.75
2019-03-21T09:11:06.396Z,102669.66
2019-03-21T09:13:35.981Z,102662.44
2019-03-21T09:16:05.695Z,102661.08
2019-03-21T09:18:35.537Z,102658.63
2019-03-21T09:21:05.290Z,102657.98
2019-03-21T09:23:34.934Z,102656.14
2019-03-21T09:26:04.762Z,102656.99
2019-03-21T09:28:34.498Z,102653.64
2019-03-21T09:31:04.078Z,102650.72
2019-03-21T09:33:33.638Z,102657.34
2019-03-21T09:36:03.509Z,102656.56
2019-03-21T09:38:33.424Z,102651.48
2019-03-21T09:41:03.563Z,102658.55
2019-03-21T09:43:33.125Z,102648.03
2019-03-21T09:46:03.407Z,102658.67
2019-03-21T09:48:32.921Z,102664.31
2019-03-21T09:51:02.776Z,102658.34
2019-03-21T09:53:32.569Z,102659.33
2019-03-21T09:56:02.154Z,102656.37
2019-03-21T09:58:31.708Z,102651.42
2019-03-21T10:01:01.887Z,102657.92
2019-03-21T10:03:31.706Z,102658.09
2019-03-21T10:06:01.263Z,102650.33
2019-03-21T10:08:30.822Z,102637.95
2019-03-21T10:11:00.707Z,102641.52
2019-03-21T10:13:30.270Z,102637.56
2019-03-21T10:15:59.961Z,102636.25
2019-03-21T10:18:29.918Z,102635.95
2019-03-21T10:20:59.715Z,102632.59
2019-03-21T10:23:29.253Z,102631.33
2019-03-21T10:25:59.323Z,102638.95
2019-03-21T10:28:28.872Z,102631.67
2019-03-21T10:30:58.428Z,102637.09
2019-03-21T10:33:27.995Z,102631.10
2019-03-21T10:35:58.281Z,102631.05
2019-03-21T10:38:27.883Z,102636.13
2019-03-21T10:40:58.694Z,102618.48
2019-03-21T10:43:28.322Z,102633.06
2019-03-21T10:45:58.167Z,102626.14
2019-03-21T10:48:27.944Z,102625.16
2019-03-21T10:50:58.311Z,102629.24
2019-03-21T10:53:28.096Z,102623.81
2019-03-21T10:55:58.239Z,102620.59
2019-03-21T10:58:27.878Z,102621.95
2019-03-21T11:00:58.218Z,102619.69
2019-03-21T11:03:27.989Z,102626.09
2019-03-21T11:05:58.305Z,102625.80
2019-03-21T11:08:27.886Z,102616.56
2019-03-21T11:10:58.175Z,102627.20
2019-03-21T11:13:27.881Z,102622.28
2019-03-21T11:15:58.274Z,102620.80
2019-03-21T11:18:36.065Z,102621.19
2019-03-21T11:20:59.319Z,102611.52
2019-03-21T11:23:28.966Z,102613.45
2019-03-21T11:25:58.605Z,102616.59
2019-03-21T11:28:28.146Z,102614.20
2019-03-21T11:30:58.416Z,102608.72
2019-03-21T11:33:28.224Z,102604.95
2019-03-21T11:35:58.676Z,102613.01
2019-03-21T11:38:28.303Z,102595.78
2019-03-21T11:40:58.475Z,102595.15
2019-03-21T11:43:28.117Z,102594.50
2019-03-21T11:45:58.423Z,102586.55
2019-03-21T11:48:28.167Z,102586.66
2019-03-21T11:50:58.463Z,102585.61
2019-03-21T11:53:28.094Z,102580.26
2019-03-21T11:55:58.434Z,102582.20
2019-03-21T11:58:28.094Z,102579.88
2019-03-21T12:00:58.437Z,102582.91
2019-03-21T12:03:28.248Z,102579.31
2019-03-21T12:05:58.557Z,102570.56
2019-03-21T12:08:28.163Z,102574.53
2019-03-21T12:10:58.509Z,102567.14
2019-03-21T12:13:28.231Z,102571.22
2019-03-21T12:15:58.515Z,102569.50
2019-03-21T12:18:28.334Z,102561.42
2019-03-21T12:20:58.966Z,102561.34
2019-03-21T12:23:28.530Z,102556.93
2019-03-21T12:25:58.659Z,102557.34
2019-03-21T12:28:28.277Z,102544.66
2019-03-21T12:30:58.650Z,102552.33
2019-03-21T12:33:28.452Z,102546.84
2019-03-21T12:35:58.769Z,102552.90
2019-03-21T12:38:28.352Z,102550.50
2019-03-21T12:40:58.599Z,102538.20
2019-03-21T12:43:28.399Z,102542.25
2019-03-21T12:45:58.724Z,102542.95
2019-03-21T12:48:28.449Z,102547.31
2019-03-21T12:50:58.854Z,102541.50
2019-03-21T12:53:28.430Z,102531.97
2019-03-21T12:55:58.684Z,102533.64
2019-03-21T12:58:28.290Z,102528.94
2019-03-21T13:00:58.761Z,102533.69
2019-03-21T13:03:28.530Z,102527.75
2019-03-21T13:05:58.843Z,102522.41
2019-03-21T13:08:33.814Z,102523.80
2019-03-21T13:11:01.102Z,102517.91
2019-03-21T13:13:30.771Z,102515.47
2019-03-21T13:16:00.682Z,102519.17
2019-03-21T13:18:30.214Z,102519.38
2019-03-21T13:21:00.058Z,102513.84
2019-03-21T13:23:29.582Z,102511.12
2019-03-21T13:25:59.554Z,102505.84
2019-03-21T13:28:29.106Z,102501.08
2019-03-21T13:30:58.932Z,102500.01
2019-03-21T13:33:28.650Z,102500.88
2019-03-21T13:35:58.985Z,102495.78
2019-03-21T13:38:28.609Z,102497.75
2019-03-21T13:40:58.921Z,102490.01
2019-03-21T13:43:28.478Z,102492.01
2019-03-21T13:45:58.808Z,102481.02
2019-03-21T13:48:28.430Z,102480.72
2019-03-21T13:50:59.089Z,102481.58
2019-03-21T13:53:28.821Z,102479.15
2019-03-21T13:55:59.369Z,102481.19
2019-03-21T13:58:28.941Z,102469.14
2019-03-21T14:00:59.089Z,102471.39
2019-03-21T14:03:28.823Z,102476.06
2019-03-21T14:05:59.444Z,102472.94
2019-03-21T14:08:28.981Z,102469.67
2019-03-21T14:10:59.087Z,102468.79
2019-03-21T14:13:28.700Z,102470.24
2019-03-21T14:15:58.986Z,102472.34
2019-03-21T14:18:28.799Z,102465.44
2019-03-21T14:20:59.176Z,102458.02
2019-03-21T14:23:29.035Z,102453.73
2019-03-21T14:25:59.038Z,102450.18
2019-03-21T14:28:28.646Z,102455.36
2019-03-21T14:30:58.995Z,102447.25
2019-03-21T14:33:28.932Z,102447.90
2019-03-21T14:35:59.302Z,102442.98
2019-03-21T14:38:31.071Z,102444.16
2019-03-21T14:41:01.051Z,102439.11
2019-03-21T14:43:30.770Z,102436.92
2019-03-21T14:46:00.589Z,102440.16
2019-03-21T14:48:30.127Z,102440.65
2019-03-21T14:50:59.910Z,102438.47
2019-03-21T14:53:29.816Z,102429.17
2019-03-21T14:55:59.397Z,102431.07
2019-03-21T14:58:28.937Z,102436.50
2019-03-21T15:00:59.205Z,102438.09
2019-03-21T15:03:29.036Z,102430.93
2019-03-21T15:05:59.561Z,102431.16
2019-03-21T15:08:29.149Z,102429.01
2019-03-21T15:10:59.248Z,102428.23
2019-03-21T15:13:29.365Z,102429.84
2019-03-21T15:15:59.295Z,102425.64
2019-03-21T15:18:29.076Z,102419.12
2019-03-21T15:20:59.370Z,102416.97
2019-03-21T15:23:39.882Z,102412.97
2019-03-21T15:26:00.517Z,102411.70
2019-03-21T15:28:31.316Z,102411.93
2019-03-21T15:31:01.258Z,102410.61
2019-03-21T15:33:31.113Z,102411.81
2019-03-21T15:36:00.700Z,102414.00
2019-03-21T15:38:30.260Z,102411.60
2019-03-21T15:41:00.084Z,102404.30
2019-03-21T15:43:29.630Z,102406.09
2019-03-21T15:45:59.521Z,102405.77
2019-03-21T15:48:29.227Z,102407.64
2019-03-21T15:51:04.774Z,102399.94
2019-03-21T15:53:31.042Z,102400.94
2019-03-21T15:56:01.276Z,102398.97
2019-03-21T15:58:31.122Z,102410.18
2019-03-21T16:01:01.182Z,102406.77
2019-03-21T16:03:30.741Z,102404.77
2019-03-21T16:06:00.550Z,102406.44
2019-03-21T16:08:30.122Z,102405.49
2019-03-21T16:10:59.686Z,102403.07
2019-03-21T16:13:29.289Z,102402.13
2019-03-21T16:15:59.544Z,102404.26
2019-03-21T16:18:29.214Z,102404.05
2019-03-21T16:20:59.592Z,102402.97
2019-03-21T16:23:30.279Z,102406.39
2019-03-21T16:25:59.845Z,102402.32
2019-03-21T16:28:29.394Z,102400.46
2019-03-21T16:33:51.423Z,102397.25
2019-03-21T16:36:21.243Z,102395.25
2019-03-21T16:38:50.810Z,102393.05
2019-03-21T16:41:20.462Z,102398.59
2019-03-21T16:43:50.375Z,102396.53
2019-03-21T16:46:19.958Z,102389.36
2019-03-21T16:48:49.521Z,102388.83
2019-03-21T16:51:19.231Z,102394.19
2019-03-21T16:53:48.774Z,102387.72
2019-03-21T16:56:18.636Z,102377.14
2019-03-21T16:58:48.403Z,102387.97
2019-03-21T17:01:17.957Z,102384.86
2019-03-21T17:03:47.773Z,102385.69
2019-03-21T17:06:17.654Z,102381.69
2019-03-21T17:08:47.342Z,102385.81
2019-03-21T17:11:17.380Z,102396.48
2019-03-21T17:13:46.926Z,102402.02
2019-03-21T17:16:16.483Z,102401.35
2019-03-21T17:18:46.398Z,102403.66
2019-03-21T17:21:15.993Z,102393.31
2019-03-21T17:23:45.576Z,102400.40
2019-03-21T17:26:16.103Z,102400.19
2019-03-21T17:28:45.734Z,102406.33
2019-03-21T17:31:15.508Z,102413.19
2019-03-21T17:33:45.251Z,102413.43
2019-03-21T17:36:15.122Z,102414.80
2019-03-21T17:38:44.675Z,102416.72
2019-03-21T17:41:14.692Z,102409.95
2019-03-21T17:43:44.271Z,102416.16
2019-03-21T17:46:13.874Z,102412.82
2019-03-21T17:48:43.445Z,102410.38
2019-03-21T17:51:13.628Z,102411.43
2019-03-21T17:53:43.597Z,102418.97
2019-03-21T17:56:13.765Z,102413.13
2019-03-21T17:58:43.633Z,102415.69
2019-03-21T18:01:13.471Z,102427.43
2019-03-21T18:03:43.144Z,102425.47
2019-03-21T18:06:12.965Z,102424.30
2019-03-21T18:08:42.685Z,102426.29
2019-03-21T18:11:12.892Z,102432.19
2019-03-21T18:13:42.758Z,102428.91
2019-03-21T18:16:12.622Z,102431.16
2019-03-21T18:18:42.559Z,102438.70
2019-03-21T18:21:12.161Z,102442.52
2019-03-21T18:23:41.703Z,102440.17
2019-03-21T18:26:11.877Z,102440.27
2019-03-21T18:28:41.871Z,102436.02
2019-03-21T18:31:11.715Z,102445.40
2019-03-21T18:33:41.539Z,102441.86
2019-03-21T18:36:11.102Z,102444.34
2019-03-21T18:38:40.650Z,102452.75
2019-03-21T18:41:10.211Z,102454.16
2019-03-21T18:43:39.755Z,102444.70
2019-03-21T18:46:09.344Z,102437.75
2019-03-21T18:48:38.893Z,102450.83
2019-03-21T18:51:08.999Z,102450.13
2019-03-21T18:53:38.635Z,102451.99
2019-03-21T18:56:09.587Z,102456.90
2019-03-21T18:58:39.321Z,102457.06
2019-03-21T19:01:09.091Z,102455.84
2019-03-21T19:03:38.778Z,102456.45
2019-03-21T19:06:08.617Z,102458.44
2019-03-21T19:08:38.180Z,102453.27
2019-03-21T19:11:08.061Z,102459.22
2019-03-21T19:13:37.865Z,102460.87
2019-03-21T19:16:07.707Z,102457.27
2019-03-21T19:18:37.267Z,102458.41
2019-03-21T19:21:07.088Z,102458.97
2019-03-21T19:23:36.833Z,102464.45
2019-03-21T19:26:06.456Z,102461.88
2019-03-21T19:28:36.019Z,102461.88
2019-03-21T19:31:05.960Z,102457.27
2019-03-21T19:33:35.870Z,102462.86
2019-03-21T19:36:06.091Z,102456.23
2019-03-21T19:38:35.910Z,102452.80
2019-03-21T19:41:06.056Z,102457.23
2019-03-21T19:43:35.624Z,102459.75
2019-03-21T19:46:05.441Z,102457.50
2019-03-21T19:48:35.315Z,102464.52
2019-03-21T19:51:05.147Z,102463.13
2019-03-21T19:53:34.964Z,102466.64
2019-03-21T19:56:08.728Z,102475.31
2019-03-21T19:58:36.014Z,102469.19
2019-03-21T20:01:05.927Z,102469.70
2019-03-21T20:03:35.509Z,102474.45
2019-03-21T20:06:05.610Z,102470.64
2019-03-21T20:08:35.185Z,102470.80
2019-03-21T20:11:05.036Z,102477.98
2019-03-21T20:13:34.581Z,102477.39
2019-03-21T20:16:04.405Z,102477.14
2019-03-21T20:18:34.431Z,102478.57
2019-03-21T20:21:04.894Z,102478.59
2019-03-21T20:23:34.433Z,102474.78
2019-03-21T20:26:04.344Z,102474.41
2019-03-21T20:28:34.213Z,102482.20
2019-03-21T20:31:04.134Z,102468.80
2019-03-21T20:33:33.710Z,102474.60
2019-03-21T20:36:03.504Z,102471.23
2019-03-21T20:38:33.150Z,102471.41
2019-03-21T20:41:02.736Z,102474.42
2019-03-21T20:43:32.273Z,102474.48
2019-03-21T20:46:02.134Z,102465.63
2019-03-21T20:48:30.341Z,102478.66
2019-03-21T20:51:00.557Z,102474.95
2019-03-21T20:53:30.142Z,102478.63
2019-03-21T20:56:00.533Z,102470.79
2019-03-21T20:58:30.338Z,102466.86
2019-03-21T21:01:00.643Z,102464.30
2019-03-21T21:03:30.199Z,102464.35
2019-03-21T21:06:00.841Z,102461.25
2019-03-21T21:08:30.504Z,102462.11
2019-03-21T21:11:20.498Z,102468.87
2019-03-21T21:14:10.992Z,102463.53
2019-03-21T21:17:01.176Z,102473.34
2019-03-21T21:20:07.607Z,102467.78
2019-03-21T21:22:49.796Z,102461.72
2019-03-21T21:25:44.696Z,102460.47
2019-03-21T21:28:34.931Z,102461.02
2019-03-21T21:31:40.689Z,102457.64
2019-03-21T21:34:02.403Z,102450.27
2019-03-21T21:40:01.959Z,102444.33
2019-03-21T21:42:35.619Z,102448.30
2019-03-21T21:45:31.915Z,102446.66
2019-03-21T21:48:33.925Z,102447.91
2019-03-21T21:51:08.907Z,102449.33
2019-03-21T21:53:50.033Z,102449.08
2019-03-21T21:56:56.606Z,102451.36
2019-03-21T21:59:18.641Z,102451.84
2019-03-21T22:01:48.191Z,102449.63
2019-03-21T22:04:17.747Z,102450.10
2019-03-21T22:06:47.512Z,102452.91
2019-03-21T22:09:17.081Z,102454.88
2019-03-21T22:11:46.935Z,102458.50
2019-03-21T22:14:16.776Z,102459.14
2019-03-21T22:16:46.529Z,102462.27
2019-03-21T22:19:16.764Z,102456.48
2019-03-21T22:21:46.437Z,102453.75
2019-03-21T22:24:16.574Z,102452.45
2019-03-21T22:26:46.443Z,102449.14
2019-03-21T22:29:16.022Z,102460.14
2019-03-21T22:31:45.674Z,102464.05
2019-03-21T22:34:15.504Z,102464.85
2019-03-21T22:36:49.589Z,102459.19
2019-03-21T22:39:17.328Z,102460.06
2019-03-21T22:41:47.278Z,102457.53
2019-03-21T22:44:17.636Z,102448.91
2019-03-21T22:46:47.782Z,102454.95
2019-03-21T22:49:17.614Z,102452.31
2019-03-21T22:51:47.669Z,102454.05
2019-03-21T22:54:17.740Z,102450.48
2019-03-21T22:56:48.154Z,102443.52
2019-03-21T22:59:18.147Z,102444.78
2019-03-21T23:01:48.392Z,102446.17
2019-03-21T23:04:18.028Z,102440.77
2019-03-21T23:06:47.685Z,102447.89
2019-03-21T23:09:17.219Z,102441.41
2019-03-21T23:11:46.752Z,102437.48
2019-03-21T23:14:16.900Z,102431.47
2019-03-21T23:16:46.732Z,102445.43
2019-03-21T23:19:16.270Z,102441.70
2019-03-21T23:21:45.853Z,102440.58
2019-03-21T23:24:15.738Z,102447.59
2019-03-21T23:26:52.863Z,102445.02
2019-03-21T23:29:17.161Z,102441.11
2019-03-21T23:31:46.738Z,102448.59
2019-03-21T23:34:16.590Z,102447.83
2019-03-21T23:36:46.150Z,102443.98
2019-03-21T23:39:15.965Z,102433.11
2019-03-21T23:41:45.783Z,102430.91
2019-03-21T23:44:15.634Z,102430.41
2019-03-21T23:46:45.469Z,102429.97
2019-03-21T23:49:15.002Z,102421.25
2019-03-21T23:51:44.892Z,102422.16
2019-03-21T23:54:15.196Z,102427.83
2019-03-21T23:56:44.793Z,102424.45
2019-03-21T23:59:14.731Z,102417.88
